sensor_id;sensor_type;location;lat;lon;timestamp;P1;durP1;ratioP1;P2;durP2;ratioP2
11135;SDS011;5622;50.840;4.948;2022-12-18T04:18:35;39.50;;;19.03;;
11135;SDS011;5622;50.840;4.948;2022-12-18T04:28:13;42.53;;;20.13;;
11135;SDS011;5622;50.840;4.948;2022-12-18T04:50:51;45.53;;;20.47;;
11135;SDS011;5622;50.840;4.948;2022-12-18T04:54:13;36.33;;;19.03;;
11135;SDS011;5622;50.840;4.948;2022-12-18T04:57:26;44.80;;;19.70;;
11135;SDS011;5622;50.840;4.948;2022-12-18T05:00:16;36.43;;;18.20;;
11135;SDS011;5622;50.840;4.948;2022-12-18T05:10:27;41.37;;;18.87;;
11135;SDS011;5622;50.840;4.948;2022-12-18T05:16:40;35.33;;;17.53;;
11135;SDS011;5622;50.840;4.948;2022-12-18T05:19:31;39.93;;;19.27;;
11135;SDS011;5622;50.840;4.948;2022-12-18T05:32:26;37.07;;;17.43;;
11135;SDS011;5622;50.840;4.948;2022-12-18T05:35:35;35.40;;;18.17;;
11135;SDS011;5622;50.840;4.948;2022-12-18T05:38:50;37.10;;;16.97;;
11135;SDS011;5622;50.840;4.948;2022-12-18T05:41:39;39.93;;;17.07;;
11135;SDS011;5622;50.840;4.948;2022-12-18T05:44:33;40.87;;;17.33;;
11135;SDS011;5622;50.840;4.948;2022-12-18T05:54:22;45.10;;;18.87;;
11135;SDS011;5622;50.840;4.948;2022-12-18T05:57:37;32.23;;;17.17;;
11135;SDS011;5622;50.840;4.948;2022-12-18T06:03:53;33.57;;;17.70;;
11135;SDS011;5622;50.840;4.948;2022-12-18T06:06:58;41.07;;;19.23;;
11135;SDS011;5622;50.840;4.948;2022-12-18T06:16:53;42.17;;;18.77;;
11135;SDS011;5622;50.840;4.948;2022-12-18T06:19:46;40.83;;;19.07;;
11135;SDS011;5622;50.840;4.948;2022-12-18T06:22:33;32.03;;;17.80;;
11135;SDS011;5622;50.840;4.948;2022-12-18T06:28:36;35.43;;;17.70;;
11135;SDS011;5622;50.840;4.948;2022-12-18T06:48:30;34.30;;;17.63;;
11135;SDS011;5622;50.840;4.948;2022-12-18T06:51:41;38.00;;;18.03;;
11135;SDS011;5622;50.840;4.948;2022-12-18T06:54:32;40.57;;;19.10;;
11135;SDS011;5622;50.840;4.948;2022-12-18T06:57:16;38.80;;;17.60;;
11135;SDS011;5622;50.840;4.948;2022-12-18T07:00:06;36.20;;;17.80;;
11135;SDS011;5622;50.840;4.948;2022-12-18T07:09:11;35.67;;;16.13;;
11135;SDS011;5622;50.840;4.948;2022-12-18T07:11:53;38.70;;;17.00;;
11135;SDS011;5622;50.840;4.948;2022-12-18T07:14:30;38.60;;;17.10;;
11135;SDS011;5622;50.840;4.948;2022-12-18T07:17:12;32.77;;;17.07;;
11135;SDS011;5622;50.840;4.948;2022-12-18T07:20:13;33.07;;;15.70;;
11135;SDS011;5622;50.840;4.948;2022-12-18T07:23:12;34.10;;;16.63;;
11135;SDS011;5622;50.840;4.948;2022-12-18T07:26:04;33.23;;;17.10;;
11135;SDS011;5622;50.840;4.948;2022-12-18T07:29:06;35.77;;;16.17;;
11135;SDS011;5622;50.840;4.948;2022-12-18T07:31:48;34.33;;;17.77;;
11135;SDS011;5622;50.840;4.948;2022-12-18T07:37:31;35.70;;;16.57;;
11135;SDS011;5622;50.840;4.948;2022-12-18T07:40:48;36.93;;;17.30;;
11135;SDS011;5622;50.840;4.948;2022-12-18T07:43:57;36.60;;;17.33;;
11135;SDS011;5622;50.840;4.948;2022-12-18T07:46:49;31.53;;;16.93;;
11135;SDS011;5622;50.840;4.948;2022-12-18T07:49:36;35.13;;;16.83;;
11135;SDS011;5622;50.840;4.948;2022-12-18T07:52:47;32.47;;;17.03;;
11135;SDS011;5622;50.840;4.948;2022-12-18T07:55:31;32.00;;;16.17;;
11135;SDS011;5622;50.840;4.948;2022-12-18T07:58:23;35.20;;;17.60;;
11135;SDS011;5622;50.840;4.948;2022-12-18T08:01:22;39.60;;;17.63;;
11135;SDS011;5622;50.840;4.948;2022-12-18T08:11:01;35.47;;;16.63;;
11135;SDS011;5622;50.840;4.948;2022-12-18T08:13:45;39.03;;;16.87;;
11135;SDS011;5622;50.840;4.948;2022-12-18T08:16:51;31.07;;;14.70;;
11135;SDS011;5622;50.840;4.948;2022-12-18T08:19:55;27.70;;;14.60;;
11135;SDS011;5622;50.840;4.948;2022-12-18T08:22:34;26.97;;;15.00;;
11135;SDS011;5622;50.840;4.948;2022-12-18T08:25:15;28.37;;;15.00;;
11135;SDS011;5622;50.840;4.948;2022-12-18T08:27:58;32.93;;;15.90;;
11135;SDS011;5622;50.840;4.948;2022-12-18T08:30:51;35.97;;;16.03;;
11135;SDS011;5622;50.840;4.948;2022-12-18T08:33:43;31.53;;;15.23;;
11135;SDS011;5622;50.840;4.948;2022-12-18T08:43:04;29.60;;;14.53;;
11135;SDS011;5622;50.840;4.948;2022-12-18T08:45:54;29.57;;;14.03;;
